This is the latest recevied weather packets stored in our database for station/object KB4JAC-13. If no packets are shown the sender has not sent any weather packets the latest 10 day(s).
| Time | Temp. | Humidity | Pressure | Rain* | Wind** | Luminosity | Snow |
|---|---|---|---|---|---|---|---|
| 1788534852 | 32.78° C | 69% | 992.5 hPa | 0 mm | - | - | - |
| 1788534253 | 32.22° C | 72% | 992.3 hPa | 0 mm | - | - | - |
| 1788533651 | 32.22° C | 71% | 992.2 hPa | 0 mm | - | - | - |
| 1788533050 | 31.67° C | 72% | 992.2 hPa | 0 mm | - | - | - |
| 1788532449 | 31.11° C | 76% | 992.3 hPa | 0 mm | - | - | - |
| 1788531848 | 31.67° C | 73% | 992.3 hPa | 0 mm | - | - | - |
| 1788531247 | 31.11° C | 73% | 992.3 hPa | 0 mm | - | - | - |
| 1788530646 | 30° C | 77% | 992.2 hPa | 0 mm | - | - | - |
| 1788530045 | 30° C | 77% | 992 hPa | 0 mm | - | - | - |
| 1788529444 | 30° C | 79% | 992.1 hPa | 0 mm | - | - | - |
| 1788528843 | 28.89° C | 80% | 992.1 hPa | 0 mm | - | - | - |
| 1788528242 | 29.44° C | 80% | 992.1 hPa | 0 mm | - | - | - |
| 1788527641 | 28.33° C | 84% | 992.2 hPa | 0 mm | - | - | - |
| 1788527040 | 27.78° C | 87% | 992.1 hPa | 0 mm | - | - | - |
| 1788526439 | 25.56° C | 92% | 992 hPa | 0 mm | - | - | - |
| 1788525838 | 24.44° C | 97% | 992.1 hPa | 0 mm | - | - | - |
| 1788525238 | 23.89° C | 98% | 992.2 hPa | 0 mm | - | - | - |
| 1788524637 | 23.33° C | 99% | 992 hPa | 0 mm | - | - | - |
| 1788524036 | 22.78° C | 99% | 991.8 hPa | 0 mm | - | - | - |
| 1788523435 | 22.78° C | 99% | 992 hPa | 0 mm | - | - | - |
| 1788522834 | 22.22° C | 99% | 991.8 hPa | 0 mm | - | - | - |
| 1788522233 | 22.22° C | 99% | 991.9 hPa | 0 mm | - | - | - |
| 1788521632 | 22.22° C | 99% | 991.8 hPa | 0 mm | - | - | - |
| 1788521031 | 22.22° C | 99% | 991.6 hPa | 0 mm | - | - | - |
| 1788520430 | 22.22° C | 99% | 991.7 hPa | 0 mm | - | - | - |
* Rain since midnight (hover to see other rain measurements)
** Current wind speed in m/s (hover to see current wind gust speed)